Comanche, TX (76442)

7:51 PM CDT on April 27, 2015 (GMT -0500)
RAWS | | Change Station
CLOSE
Current Station
Personal Weather Station
Location: Comanche, TX
Elevation: 1312 ft
Nearby Weather Stations

Elev 1312 ft 31.92 °N, 98.60 °W | Updated 41 minutes ago

Scattered Clouds
Scattered Clouds
68 °F
Feels Like 68 °F
N
8
Wind Variable Wind from North
Gusts 16.0 mph

Today
High -- | Low -- °F
--% Chance of Precip.
Yesterday
High -- | Low -- °F
Precip. -- in
6:52 AM 8:11 PM
Waxing Gibbous, 69% visible
Pressure 29.78 in
Visibility 10.0 miles
Clouds Scattered Clouds 9500 ft
Dew Point 54 °F
Humidity 61%
Rainfall in
Snow Depth Not available.
UV 0 out of 12
Pollen 8.30 out of 12
Air Quality Not available.
Flu Activity Local Activity
METAR KMKN 280035Z AUTO 01004KT 10SM SCT095 20/14 A2978 RMK AO2 T01980139

More Conditions Fewer Conditions

Pressure 29.78 in
Visibility 10.0 miles
Clouds Scattered Clouds 9500 ft
Dew Point 54 °F
Humidity 61%
Rainfall in
Snow Depth Not available.
UV 0 out of 12
Pollen 8.30 out of 12
Air Quality Not available.
Flu Activity Local Activity
METAR KMKN 280035Z AUTO 01004KT 10SM SCT095 20/14 A2978 RMK AO2 T01980139

More Conditions Fewer Conditions

10-Day Weather Forecast

Almanac

Astronomy

Apr. 27, 2015 Rise Set
Actual Time
Civil Twilight
Nautical Twilight
Astronomical Twilight
Moon
Length of Visible Light
Length of Day
Tomorrow will be .
, % of the Moon is Illuminated

Today's Extremes

State Highs State Lows

Community

WunderPhotos

Upload Photos

1,817,497 photos uploaded!

WunderBlogs® & News

Nearby

Air Quality

  Air Quality AQ Index Pollutant
Not available.

Snow Depth

Station Depth Elevation

Earthquake Activity

City Distance Mag. Time & Date
Minimum magnitude displayed is 2.5.

Coastal Water Temperatures

Place Temperature

Stations

Nearby Weather Stations

Station Location Temp. Windchill Dew Point Humidity Wind Precip. Elev Updated Type